Ils 04r lfmn - regarder vidéo
FSX Boeing 737-800ng ILS rwy 04R LFMN

Stormy weather in nice cote dazur when I land the Boeing 737-800ng on rwy 04R.



FSX Movie HD ILS 04R LFMN nice landing.


attérissage sur la 04R de lfmn nice-cote dassure. Abonnez vous!!!! Facebook: site...



Nice-LFMN-ILS 04R




737 PMDG approche ils 04l LFMN



Fsx landing LFMN problem align

landing lfmn is not align with ils 04R why?



Lufthansa CRJ900 Landing Nice 04R (LFMN/NCE)


LH2274 muc-nce/eddm-lfmn on 27th April 2012 seat: 24A rwy 04R lfmn 271500Z 08011KT 9999 few030 bkn230 19/11 Q1018 nosig.



Cockpit landing Boeing 737NG 04L LFMN Nice

Cockpit video lfmn vor A 04L approach, Boeing 737-700.



A321 Air France (AF6240) landing runway 04R at Nice LFMN - VPT A

Passenger view vor A/vpt A procedure Departure 06:40 Arrival: 08:00 Seat: 29A Runway 04L/22R closed due work.



Nice Runway 04R Dornier 328 SkyWork Airlines LFMN NCE



Landing LFMN 04L Nice


Atterrissage Airbus à Nice lfmn 04L.